sensor_id;sensor_type;location;lat;lon;timestamp;pressure;altitude;pressure_sealevel;temperature;humidity
33151;BME280;19508;42.578;23.416;2022-12-18T00:01:26;94394.41;;;9.66;82.91
33151;BME280;19508;42.578;23.416;2022-12-18T00:03:53;94400.44;;;9.26;84.41
33151;BME280;19508;42.578;23.416;2022-12-18T00:06:20;94408.63;;;9.31;83.95
33151;BME280;19508;42.578;23.416;2022-12-18T00:08:46;94395.88;;;9.27;83.90
33151;BME280;19508;42.578;23.416;2022-12-18T00:11:15;94410.78;;;9.11;84.27
33151;BME280;19508;42.578;23.416;2022-12-18T00:13:41;94414.13;;;8.95;84.71
33151;BME280;19508;42.578;23.416;2022-12-18T00:16:10;94421.44;;;9.06;83.62
33151;BME280;19508;42.578;23.416;2022-12-18T00:18:36;94423.81;;;8.96;83.86
33151;BME280;19508;42.578;23.416;2022-12-18T00:21:05;94424.81;;;9.13;83.12
33151;BME280;19508;42.578;23.416;2022-12-18T00:23:32;94430.91;;;9.20;81.81
33151;BME280;19508;42.578;23.416;2022-12-18T00:26:02;94426.50;;;8.96;83.42
33151;BME280;19508;42.578;23.416;2022-12-18T00:28:27;94432.50;;;8.98;83.14
33151;BME280;19508;42.578;23.416;2022-12-18T00:31:04;94427.81;;;8.63;82.70
33151;BME280;19508;42.578;23.416;2022-12-18T00:33:30;94432.50;;;8.50;84.14
33151;BME280;19508;42.578;23.416;2022-12-18T00:36:17;94443.69;;;8.65;83.53
33151;BME280;19508;42.578;23.416;2022-12-18T00:38:44;94436.81;;;8.32;82.91
33151;BME280;19508;42.578;23.416;2022-12-18T00:41:11;94438.41;;;8.40;82.96
33151;BME280;19508;42.578;23.416;2022-12-18T00:43:37;94447.94;;;8.36;82.88
33151;BME280;19508;42.578;23.416;2022-12-18T00:46:03;94447.94;;;8.36;82.85
33151;BME280;19508;42.578;23.416;2022-12-18T00:48:29;94444.59;;;8.40;82.53
33151;BME280;19508;42.578;23.416;2022-12-18T00:50:54;94453.44;;;8.23;82.48
33151;BME280;19508;42.578;23.416;2022-12-18T00:53:20;94445.78;;;8.44;81.65
33151;BME280;19508;42.578;23.416;2022-12-18T00:55:46;94452.88;;;8.39;82.03
33151;BME280;19508;42.578;23.416;2022-12-18T00:58:12;94450.91;;;8.28;82.63
33151;BME280;19508;42.578;23.416;2022-12-18T01:00:38;94462.94;;;8.43;81.81
33151;BME280;19508;42.578;23.416;2022-12-18T01:03:04;94455.38;;;8.34;81.84
33151;BME280;19508;42.578;23.416;2022-12-18T01:05:30;94457.94;;;8.47;80.72
33151;BME280;19508;42.578;23.416;2022-12-18T01:07:56;94461.88;;;8.44;81.15
33151;BME280;19508;42.578;23.416;2022-12-18T01:10:21;94466.34;;;8.51;81.13
33151;BME280;19508;42.578;23.416;2022-12-18T01:12:47;94473.75;;;8.55;80.90
33151;BME280;19508;42.578;23.416;2022-12-18T01:15:13;94466.88;;;8.41;80.30
33151;BME280;19508;42.578;23.416;2022-12-18T01:17:39;94464.56;;;8.44;80.38
33151;BME280;19508;42.578;23.416;2022-12-18T01:20:05;94477.38;;;8.24;81.28
33151;BME280;19508;42.578;23.416;2022-12-18T01:22:34;94464.06;;;7.92;81.56
33151;BME280;19508;42.578;23.416;2022-12-18T01:24:59;94474.31;;;8.20;81.07
33151;BME280;19508;42.578;23.416;2022-12-18T01:27:25;94479.06;;;8.18;80.49
33151;BME280;19508;42.578;23.416;2022-12-18T01:29:50;94465.34;;;7.90;81.52
33151;BME280;19508;42.578;23.416;2022-12-18T01:32:16;94483.63;;;7.75;82.44
33151;BME280;19508;42.578;23.416;2022-12-18T01:34:41;94478.25;;;7.75;82.74
33151;BME280;19508;42.578;23.416;2022-12-18T01:37:07;94491.84;;;7.55;83.40
33151;BME280;19508;42.578;23.416;2022-12-18T01:39:32;94473.25;;;7.35;84.10
33151;BME280;19508;42.578;23.416;2022-12-18T01:41:59;94481.22;;;7.67;82.81
33151;BME280;19508;42.578;23.416;2022-12-18T01:44:57;94490.13;;;7.85;81.99
33151;BME280;19508;42.578;23.416;2022-12-18T01:47:28;94496.28;;;7.86;81.64
33151;BME280;19508;42.578;23.416;2022-12-18T01:49:55;94493.47;;;7.81;80.83
33151;BME280;19508;42.578;23.416;2022-12-18T01:52:24;94492.38;;;7.63;81.75
33151;BME280;19508;42.578;23.416;2022-12-18T01:54:51;94491.97;;;7.60;81.22
33151;BME280;19508;42.578;23.416;2022-12-18T01:57:17;94494.66;;;7.85;80.74
33151;BME280;19508;42.578;23.416;2022-12-18T01:59:45;94496.75;;;7.58;82.55
33151;BME280;19508;42.578;23.416;2022-12-18T02:02:13;94490.25;;;7.16;82.42
33151;BME280;19508;42.578;23.416;2022-12-18T02:04:39;94496.06;;;7.06;82.81
33151;BME280;19508;42.578;23.416;2022-12-18T02:13:01;94509.84;;;7.41;81.51
33151;BME280;19508;42.578;23.416;2022-12-18T02:15:38;94511.16;;;7.32;82.39
33151;BME280;19508;42.578;23.416;2022-12-18T02:18:27;94512.31;;;7.43;81.61
33151;BME280;19508;42.578;23.416;2022-12-18T02:26:43;94515.06;;;7.36;81.00
33151;BME280;19508;42.578;23.416;2022-12-18T02:29:17;94526.38;;;7.38;80.98
33151;BME280;19508;42.578;23.416;2022-12-18T02:31:49;94522.94;;;7.24;81.85
33151;BME280;19508;42.578;23.416;2022-12-18T02:34:18;94531.91;;;7.12;81.76
33151;BME280;19508;42.578;23.416;2022-12-18T02:36:45;94523.75;;;6.93;82.31
33151;BME280;19508;42.578;23.416;2022-12-18T02:39:13;94532.72;;;7.12;81.68
33151;BME280;19508;42.578;23.416;2022-12-18T02:41:40;94531.72;;;7.06;81.48
33151;BME280;19508;42.578;23.416;2022-12-18T02:44:11;94527.50;;;6.86;82.51
33151;BME280;19508;42.578;23.416;2022-12-18T02:46:45;94529.97;;;6.87;82.97
33151;BME280;19508;42.578;23.416;2022-12-18T02:49:39;94537.66;;;7.08;81.88
33151;BME280;19508;42.578;23.416;2022-12-18T02:57:18;94524.13;;;7.03;81.88
33151;BME280;19508;42.578;23.416;2022-12-18T03:00:31;94536.00;;;7.14;81.74
33151;BME280;19508;42.578;23.416;2022-12-18T03:03:06;94539.88;;;6.80;82.08
33151;BME280;19508;42.578;23.416;2022-12-18T03:05:47;94546.25;;;6.79;82.88
33151;BME280;19508;42.578;23.416;2022-12-18T03:08:22;94543.25;;;6.56;83.67
33151;BME280;19508;42.578;23.416;2022-12-18T03:10:57;94539.06;;;6.79;82.50
33151;BME280;19508;42.578;23.416;2022-12-18T03:13:50;94546.03;;;6.81;82.71
33151;BME280;19508;42.578;23.416;2022-12-18T03:16:25;94555.59;;;6.63;83.30
33151;BME280;19508;42.578;23.416;2022-12-18T03:18:58;94557.44;;;6.63;83.25
33151;BME280;19508;42.578;23.416;2022-12-18T03:21:37;94560.13;;;6.63;82.99
33151;BME280;19508;42.578;23.416;2022-12-18T03:24:06;94563.75;;;6.75;82.34
33151;BME280;19508;42.578;23.416;2022-12-18T03:26:33;94565.44;;;6.76;82.38
33151;BME280;19508;42.578;23.416;2022-12-18T03:29:04;94563.84;;;6.48;83.40
33151;BME280;19508;42.578;23.416;2022-12-18T03:31:35;94568.94;;;6.70;82.03
33151;BME280;19508;42.578;23.416;2022-12-18T03:34:05;94567.47;;;6.74;81.46
33151;BME280;19508;42.578;23.416;2022-12-18T03:36:34;94573.97;;;6.40;81.87
33151;BME280;19508;42.578;23.416;2022-12-18T03:39:00;94581.59;;;6.30;82.79
33151;BME280;19508;42.578;23.416;2022-12-18T03:41:32;94591.63;;;6.67;81.60
33151;BME280;19508;42.578;23.416;2022-12-18T03:49:26;94602.38;;;6.21;82.27
33151;BME280;19508;42.578;23.416;2022-12-18T03:54:28;94601.56;;;6.14;82.84
33151;BME280;19508;42.578;23.416;2022-12-18T03:56:59;94608.34;;;6.36;82.18
33151;BME280;19508;42.578;23.416;2022-12-18T03:59:27;94620.06;;;6.35;81.99
33151;BME280;19508;42.578;23.416;2022-12-18T04:01:54;94612.88;;;6.03;82.58
33151;BME280;19508;42.578;23.416;2022-12-18T04:04:21;94624.19;;;6.31;82.16
33151;BME280;19508;42.578;23.416;2022-12-18T04:06:49;94612.91;;;6.16;82.07
33151;BME280;19508;42.578;23.416;2022-12-18T04:09:15;94619.03;;;6.30;82.41
33151;BME280;19508;42.578;23.416;2022-12-18T04:11:41;94622.16;;;6.33;82.59
33151;BME280;19508;42.578;23.416;2022-12-18T04:14:09;94622.53;;;6.50;81.60
33151;BME280;19508;42.578;23.416;2022-12-18T04:16:34;94626.06;;;6.24;81.50
33151;BME280;19508;42.578;23.416;2022-12-18T04:18:59;94626.06;;;6.11;82.23
33151;BME280;19508;42.578;23.416;2022-12-18T04:21:25;94637.97;;;6.41;81.35
33151;BME280;19508;42.578;23.416;2022-12-18T04:23:50;94637.50;;;6.58;80.40
33151;BME280;19508;42.578;23.416;2022-12-18T04:26:16;94639.19;;;6.59;80.02
33151;BME280;19508;42.578;23.416;2022-12-18T04:28:41;94643.72;;;6.45;79.92
33151;BME280;19508;42.578;23.416;2022-12-18T04:31:06;94633.84;;;6.45;79.23
33151;BME280;19508;42.578;23.416;2022-12-18T04:33:32;94643.94;;;6.50;78.77
33151;BME280;19508;42.578;23.416;2022-12-18T04:35:57;94628.69;;;6.50;78.65
33151;BME280;19508;42.578;23.416;2022-12-18T04:38:23;94636.31;;;6.54;78.77
33151;BME280;19508;42.578;23.416;2022-12-18T04:40:48;94641.22;;;6.63;77.62
33151;BME280;19508;42.578;23.416;2022-12-18T04:43:13;94637.94;;;6.55;78.18
33151;BME280;19508;42.578;23.416;2022-12-18T04:45:39;94655.19;;;6.65;77.62
33151;BME280;19508;42.578;23.416;2022-12-18T04:48:04;94665.94;;;6.45;78.74
33151;BME280;19508;42.578;23.416;2022-12-18T04:50:30;94653.63;;;6.18;79.39
33151;BME280;19508;42.578;23.416;2022-12-18T04:52:56;94675.00;;;6.18;79.94
33151;BME280;19508;42.578;23.416;2022-12-18T04:55:22;94676.84;;;6.04;79.61
33151;BME280;19508;42.578;23.416;2022-12-18T04:57:50;94672.13;;;6.19;78.84
33151;BME280;19508;42.578;23.416;2022-12-18T05:00:15;94672.53;;;6.23;78.29
33151;BME280;19508;42.578;23.416;2022-12-18T05:02:41;94684.66;;;6.06;78.96
33151;BME280;19508;42.578;23.416;2022-12-18T05:05:07;94691.88;;;6.38;78.03
33151;BME280;19508;42.578;23.416;2022-12-18T05:07:32;94684.88;;;6.37;77.18
33151;BME280;19508;42.578;23.416;2022-12-18T05:09:58;94687.97;;;6.41;76.87
33151;BME280;19508;42.578;23.416;2022-12-18T05:12:24;94696.63;;;6.16;77.12
33151;BME280;19508;42.578;23.416;2022-12-18T05:14:49;94703.81;;;6.16;77.49
33151;BME280;19508;42.578;23.416;2022-12-18T05:17:14;94712.44;;;6.05;77.47
33151;BME280;19508;42.578;23.416;2022-12-18T05:19:40;94701.97;;;6.16;76.63
33151;BME280;19508;42.578;23.416;2022-12-18T05:22:08;94702.97;;;5.96;77.21
33151;BME280;19508;42.578;23.416;2022-12-18T05:24:34;94712.47;;;6.25;76.46
33151;BME280;19508;42.578;23.416;2022-12-18T05:27:02;94719.41;;;5.92;77.09
33151;BME280;19508;42.578;23.416;2022-12-18T05:29:27;94719.84;;;6.09;77.06
33151;BME280;19508;42.578;23.416;2022-12-18T05:31:52;94728.09;;;6.08;77.04
33151;BME280;19508;42.578;23.416;2022-12-18T05:34:18;94726.34;;;5.80;77.33
33151;BME280;19508;42.578;23.416;2022-12-18T05:36:43;94732.06;;;5.64;78.57
33151;BME280;19508;42.578;23.416;2022-12-18T05:39:09;94730.94;;;5.93;76.80
33151;BME280;19508;42.578;23.416;2022-12-18T05:41:34;94733.00;;;5.91;76.46
33151;BME280;19508;42.578;23.416;2022-12-18T05:44:00;94735.81;;;5.89;77.21
33151;BME280;19508;42.578;23.416;2022-12-18T05:46:25;94731.78;;;6.13;76.05
33151;BME280;19508;42.578;23.416;2022-12-18T05:48:51;94746.16;;;5.92;76.41
33151;BME280;19508;42.578;23.416;2022-12-18T05:51:19;94747.44;;;6.16;76.05
33151;BME280;19508;42.578;23.416;2022-12-18T05:53:45;94744.31;;;6.13;75.59
33151;BME280;19508;42.578;23.416;2022-12-18T05:56:13;94750.25;;;5.95;76.48
33151;BME280;19508;42.578;23.416;2022-12-18T05:58:40;94742.38;;;5.87;76.66
33151;BME280;19508;42.578;23.416;2022-12-18T06:01:22;94751.31;;;6.14;75.89
33151;BME280;19508;42.578;23.416;2022-12-18T06:03:48;94755.44;;;6.23;75.69
33151;BME280;19508;42.578;23.416;2022-12-18T06:08:39;94761.66;;;5.69;77.55
33151;BME280;19508;42.578;23.416;2022-12-18T06:11:05;94761.31;;;5.85;76.86
33151;BME280;19508;42.578;23.416;2022-12-18T06:13:30;94761.06;;;5.80;77.05
33151;BME280;19508;42.578;23.416;2022-12-18T06:15:55;94761.50;;;5.84;76.93
33151;BME280;19508;42.578;23.416;2022-12-18T06:18:21;94766.63;;;5.79;76.70
33151;BME280;19508;42.578;23.416;2022-12-18T06:20:55;94769.19;;;5.93;76.97
33151;BME280;19508;42.578;23.416;2022-12-18T06:23:20;94770.34;;;5.84;76.52
33151;BME280;19508;42.578;23.416;2022-12-18T06:25:46;94776.88;;;5.69;76.98
33151;BME280;19508;42.578;23.416;2022-12-18T06:28:11;94784.94;;;5.82;76.44
33151;BME280;19508;42.578;23.416;2022-12-18T06:30:37;94789.75;;;6.00;75.79
33151;BME280;19508;42.578;23.416;2022-12-18T06:33:02;94781.84;;;5.78;76.80
33151;BME280;19508;42.578;23.416;2022-12-18T06:35:27;94787.00;;;5.86;76.27
33151;BME280;19508;42.578;23.416;2022-12-18T06:37:53;94785.47;;;5.57;78.10
33151;BME280;19508;42.578;23.416;2022-12-18T06:40:18;94788.81;;;5.73;77.55
33151;BME280;19508;42.578;23.416;2022-12-18T06:42:44;94789.03;;;5.78;76.69
33151;BME280;19508;42.578;23.416;2022-12-18T06:45:09;94801.31;;;5.59;77.58
33151;BME280;19508;42.578;23.416;2022-12-18T06:47:35;94801.19;;;5.87;76.41
33151;BME280;19508;42.578;23.416;2022-12-18T06:50:00;94812.56;;;5.96;75.61
33151;BME280;19508;42.578;23.416;2022-12-18T06:52:25;94804.41;;;5.69;76.66
33151;BME280;19508;42.578;23.416;2022-12-18T06:54:51;94825.94;;;5.54;77.32
33151;BME280;19508;42.578;23.416;2022-12-18T06:57:16;94825.00;;;5.75;77.15
33151;BME280;19508;42.578;23.416;2022-12-18T06:59:42;94816.69;;;6.05;75.18
33151;BME280;19508;42.578;23.416;2022-12-18T07:02:11;94814.88;;;6.12;74.86
33151;BME280;19508;42.578;23.416;2022-12-18T07:04:37;94818.81;;;6.16;74.95
33151;BME280;19508;42.578;23.416;2022-12-18T07:07:03;94821.06;;;6.19;74.32
33151;BME280;19508;42.578;23.416;2022-12-18T07:09:28;94824.00;;;6.44;73.44
33151;BME280;19508;42.578;23.416;2022-12-18T07:11:53;94814.09;;;6.25;73.16
33151;BME280;19508;42.578;23.416;2022-12-18T07:14:19;94811.59;;;6.10;73.47
33151;BME280;19508;42.578;23.416;2022-12-18T07:16:44;94821.63;;;5.94;74.03
33151;BME280;19508;42.578;23.416;2022-12-18T07:19:09;94830.34;;;6.30;72.70
33151;BME280;19508;42.578;23.416;2022-12-18T07:21:35;94826.56;;;6.04;73.65
33151;BME280;19508;42.578;23.416;2022-12-18T07:24:00;94838.34;;;6.16;73.34
33151;BME280;19508;42.578;23.416;2022-12-18T07:26:26;94840.78;;;6.05;73.23
33151;BME280;19508;42.578;23.416;2022-12-18T07:28:54;94835.09;;;6.28;72.88
33151;BME280;19508;42.578;23.416;2022-12-18T07:31:21;94835.38;;;5.91;73.36
33151;BME280;19508;42.578;23.416;2022-12-18T07:33:47;94830.22;;;5.90;73.33
33151;BME280;19508;42.578;23.416;2022-12-18T07:36:13;94838.09;;;6.05;72.66
33151;BME280;19508;42.578;23.416;2022-12-18T07:38:39;94846.78;;;5.72;73.27
33151;BME280;19508;42.578;23.416;2022-12-18T07:41:14;94856.28;;;5.81;73.21
33151;BME280;19508;42.578;23.416;2022-12-18T07:43:40;94860.63;;;5.82;72.71
33151;BME280;19508;42.578;23.416;2022-12-18T07:46:07;94850.59;;;5.98;72.55
33151;BME280;19508;42.578;23.416;2022-12-18T07:48:33;94849.69;;;5.77;72.81
33151;BME280;19508;42.578;23.416;2022-12-18T07:51:03;94859.97;;;5.74;73.33
33151;BME280;19508;42.578;23.416;2022-12-18T07:53:29;94855.84;;;5.78;73.52
33151;BME280;19508;42.578;23.416;2022-12-18T07:55:56;94858.47;;;6.06;71.92
33151;BME280;19508;42.578;23.416;2022-12-18T07:58:22;94864.47;;;5.73;73.22
33151;BME280;19508;42.578;23.416;2022-12-18T08:00:47;94866.91;;;5.68;73.07
33151;BME280;19508;42.578;23.416;2022-12-18T08:03:16;94873.91;;;5.69;72.49
33151;BME280;19508;42.578;23.416;2022-12-18T08:05:41;94879.66;;;5.66;72.90
33151;BME280;19508;42.578;23.416;2022-12-18T08:08:07;94887.66;;;5.66;72.34
33151;BME280;19508;42.578;23.416;2022-12-18T08:10:32;94894.72;;;5.80;73.13
33151;BME280;19508;42.578;23.416;2022-12-18T08:12:57;94896.97;;;5.77;71.95
33151;BME280;19508;42.578;23.416;2022-12-18T08:15:23;94903.44;;;5.61;72.03
33151;BME280;19508;42.578;23.416;2022-12-18T08:17:48;94898.81;;;5.76;72.45
33151;BME280;19508;42.578;23.416;2022-12-18T08:20:14;94907.41;;;6.00;71.17
33151;BME280;19508;42.578;23.416;2022-12-18T08:22:41;94899.69;;;6.31;69.49
33151;BME280;19508;42.578;23.416;2022-12-18T08:25:07;94910.63;;;6.36;69.01
33151;BME280;19508;42.578;23.416;2022-12-18T08:27:32;94912.03;;;6.26;69.86
33151;BME280;19508;42.578;23.416;2022-12-18T08:29:58;94912.41;;;6.16;69.74
33151;BME280;19508;42.578;23.416;2022-12-18T08:32:24;94909.09;;;6.14;69.76
33151;BME280;19508;42.578;23.416;2022-12-18T08:34:50;94918.22;;;6.26;70.07
33151;BME280;19508;42.578;23.416;2022-12-18T08:37:16;94914.50;;;6.27;69.69
33151;BME280;19508;42.578;23.416;2022-12-18T08:39:41;94920.31;;;6.44;69.21
33151;BME280;19508;42.578;23.416;2022-12-18T08:42:06;94906.56;;;6.54;68.36
33151;BME280;19508;42.578;23.416;2022-12-18T08:44:50;94914.22;;;6.09;69.48
33151;BME280;19508;42.578;23.416;2022-12-18T08:47:16;94913.31;;;6.36;69.29
33151;BME280;19508;42.578;23.416;2022-12-18T08:49:41;94917.28;;;6.06;69.92
33151;BME280;19508;42.578;23.416;2022-12-18T08:52:07;94922.78;;;6.45;69.49
33151;BME280;19508;42.578;23.416;2022-12-18T08:54:32;94917.94;;;6.69;68.26
33151;BME280;19508;42.578;23.416;2022-12-18T08:56:58;94905.97;;;6.65;67.99
33151;BME280;19508;42.578;23.416;2022-12-18T08:59:23;94922.03;;;6.71;68.00
33151;BME280;19508;42.578;23.416;2022-12-18T09:01:49;94925.78;;;6.77;67.49
33151;BME280;19508;42.578;23.416;2022-12-18T09:04:14;94920.44;;;6.84;67.80
33151;BME280;19508;42.578;23.416;2022-12-18T09:06:40;94919.13;;;6.66;67.62
33151;BME280;19508;42.578;23.416;2022-12-18T09:09:06;94920.00;;;6.80;67.25
33151;BME280;19508;42.578;23.416;2022-12-18T09:11:32;94911.53;;;6.83;67.42
33151;BME280;19508;42.578;23.416;2022-12-18T09:13:58;94908.88;;;6.70;67.48
33151;BME280;19508;42.578;23.416;2022-12-18T09:16:25;94907.59;;;6.53;67.93
33151;BME280;19508;42.578;23.416;2022-12-18T09:18:54;94916.22;;;6.48;68.06
33151;BME280;19508;42.578;23.416;2022-12-18T09:21:25;94912.00;;;6.19;70.39
33151;BME280;19508;42.578;23.416;2022-12-18T09:23:52;94920.06;;;6.26;69.91
33151;BME280;19508;42.578;23.416;2022-12-18T09:26:17;94907.94;;;6.36;69.34
33151;BME280;19508;42.578;23.416;2022-12-18T09:28:43;94909.06;;;6.62;68.02
33151;BME280;19508;42.578;23.416;2022-12-18T09:31:11;94905.09;;;6.44;68.92
33151;BME280;19508;42.578;23.416;2022-12-18T09:33:40;94916.97;;;6.29;69.99
33151;BME280;19508;42.578;23.416;2022-12-18T09:36:07;94912.22;;;6.17;70.47
33151;BME280;19508;42.578;23.416;2022-12-18T09:38:33;94902.81;;;6.35;70.07
33151;BME280;19508;42.578;23.416;2022-12-18T09:41:03;94920.38;;;6.64;69.45
33151;BME280;19508;42.578;23.416;2022-12-18T09:43:39;94903.75;;;6.88;68.48
33151;BME280;19508;42.578;23.416;2022-12-18T09:46:08;94905.97;;;6.65;68.09
33151;BME280;19508;42.578;23.416;2022-12-18T09:48:38;94899.41;;;6.87;67.81
33151;BME280;19508;42.578;23.416;2022-12-18T09:51:39;94912.19;;;6.98;68.38
33151;BME280;19508;42.578;23.416;2022-12-18T09:54:29;94906.84;;;6.85;67.29
33151;BME280;19508;42.578;23.416;2022-12-18T09:56:57;94914.88;;;7.05;67.55
33151;BME280;19508;42.578;23.416;2022-12-18T09:59:23;94908.88;;;6.70;68.68
33151;BME280;19508;42.578;23.416;2022-12-18T10:01:50;94910.09;;;6.67;69.10
33151;BME280;19508;42.578;23.416;2022-12-18T10:04:16;94907.63;;;6.79;68.14
33151;BME280;19508;42.578;23.416;2022-12-18T10:07:05;94905.63;;;7.14;67.05
33151;BME280;19508;42.578;23.416;2022-12-18T10:17:35;94917.88;;;6.56;68.11
33151;BME280;19508;42.578;23.416;2022-12-18T10:20:32;94911.75;;;6.75;68.22
33151;BME280;19508;42.578;23.416;2022-12-18T10:25:46;94917.66;;;6.57;68.14
33151;BME280;19508;42.578;23.416;2022-12-18T10:28:15;94918.72;;;6.63;66.69
33151;BME280;19508;42.578;23.416;2022-12-18T10:30:42;94922.41;;;6.55;67.59
33151;BME280;19508;42.578;23.416;2022-12-18T10:33:21;94921.75;;;6.46;68.27
33151;BME280;19508;42.578;23.416;2022-12-18T10:35:48;94916.66;;;6.52;67.44
33151;BME280;19508;42.578;23.416;2022-12-18T10:38:31;94910.44;;;6.44;68.25
33151;BME280;19508;42.578;23.416;2022-12-18T10:41:01;94911.66;;;6.35;68.42
33151;BME280;19508;42.578;23.416;2022-12-18T10:43:32;94917.75;;;6.16;68.11
33151;BME280;19508;42.578;23.416;2022-12-18T10:46:01;94910.03;;;6.47;65.62
33151;BME280;19508;42.578;23.416;2022-12-18T10:48:27;94912.53;;;6.56;65.99
33151;BME280;19508;42.578;23.416;2022-12-18T10:50:55;94906.75;;;6.45;66.09
33151;BME280;19508;42.578;23.416;2022-12-18T10:53:24;94899.59;;;6.59;65.11
33151;BME280;19508;42.578;23.416;2022-12-18T10:55:52;94910.94;;;6.81;64.26
33151;BME280;19508;42.578;23.416;2022-12-18T10:58:29;94914.69;;;6.93;64.59
33151;BME280;19508;42.578;23.416;2022-12-18T11:01:12;94906.56;;;6.54;64.73
33151;BME280;19508;42.578;23.416;2022-12-18T11:06:21;94902.72;;;6.76;65.46
33151;BME280;19508;42.578;23.416;2022-12-18T11:09:03;94913.22;;;6.84;65.52
33151;BME280;19508;42.578;23.416;2022-12-18T11:11:29;94905.31;;;6.43;66.33
33151;BME280;19508;42.578;23.416;2022-12-18T11:14:11;94910.84;;;6.35;66.70
33151;BME280;19508;42.578;23.416;2022-12-18T11:16:46;94920.28;;;6.37;67.13
33151;BME280;19508;42.578;23.416;2022-12-18T11:19:17;94917.84;;;6.49;66.31
33151;BME280;19508;42.578;23.416;2022-12-18T11:21:45;94920.75;;;6.47;65.72
33151;BME280;19508;42.578;23.416;2022-12-18T11:24:34;94920.41;;;6.77;64.69
33151;BME280;19508;42.578;23.416;2022-12-18T11:27:02;94918.91;;;6.55;64.69
33151;BME280;19508;42.578;23.416;2022-12-18T11:29:39;94916.50;;;6.12;63.75
33151;BME280;19508;42.578;23.416;2022-12-18T11:32:37;94914.75;;;6.39;64.42
33151;BME280;19508;42.578;23.416;2022-12-18T11:35:13;94926.91;;;6.48;63.65
33151;BME280;19508;42.578;23.416;2022-12-18T11:37:43;94932.63;;;6.25;63.03
33151;BME280;19508;42.578;23.416;2022-12-18T11:40:18;94926.41;;;6.18;62.69
33151;BME280;19508;42.578;23.416;2022-12-18T11:42:50;94931.16;;;5.88;64.20
33151;BME280;19508;42.578;23.416;2022-12-18T11:45:30;94930.47;;;6.14;63.18
33151;BME280;19508;42.578;23.416;2022-12-18T11:50:26;94937.69;;;6.07;64.33
33151;BME280;19508;42.578;23.416;2022-12-18T11:52:54;94939.59;;;6.26;62.68
33151;BME280;19508;42.578;23.416;2022-12-18T11:55:31;94929.97;;;6.38;61.89
33151;BME280;19508;42.578;23.416;2022-12-18T12:20:08;94927.81;;;6.14;59.08
33151;BME280;19508;42.578;23.416;2022-12-18T12:25:44;94935.13;;;6.33;60.99
33151;BME280;19508;42.578;23.416;2022-12-18T12:28:24;94922.78;;;6.39;60.04
33151;BME280;19508;42.578;23.416;2022-12-18T12:39:16;94937.44;;;6.02;61.28
33151;BME280;19508;42.578;23.416;2022-12-18T12:41:44;94938.41;;;6.35;61.84
33151;BME280;19508;42.578;23.416;2022-12-18T12:44:47;94939.81;;;5.90;63.87
33151;BME280;19508;42.578;23.416;2022-12-18T12:47:17;94938.38;;;6.29;62.75
33151;BME280;19508;42.578;23.416;2022-12-18T12:49:45;94927.59;;;6.09;63.08
33151;BME280;19508;42.578;23.416;2022-12-18T12:52:17;94941.59;;;6.11;62.69
33151;BME280;19508;42.578;23.416;2022-12-18T12:54:47;94942.50;;;6.31;62.33
33151;BME280;19508;42.578;23.416;2022-12-18T12:57:34;94942.50;;;6.31;64.00
33151;BME280;19508;42.578;23.416;2022-12-18T13:08:03;94958.88;;;6.08;63.53
33151;BME280;19508;42.578;23.416;2022-12-18T13:10:40;94963.63;;;6.19;63.53
33151;BME280;19508;42.578;23.416;2022-12-18T13:20:45;94967.59;;;6.30;63.14
33151;BME280;19508;42.578;23.416;2022-12-18T13:34:28;94989.50;;;6.54;61.93
33151;BME280;19508;42.578;23.416;2022-12-18T13:39:58;94983.63;;;6.30;63.94
33151;BME280;19508;42.578;23.416;2022-12-18T13:45:43;94978.38;;;6.43;63.15
33151;BME280;19508;42.578;23.416;2022-12-18T13:48:21;94990.16;;;6.62;62.06
33151;BME280;19508;42.578;23.416;2022-12-18T13:51:03;95000.28;;;6.73;60.96
33151;BME280;19508;42.578;23.416;2022-12-18T13:53:30;95011.19;;;6.72;61.68
33151;BME280;19508;42.578;23.416;2022-12-18T13:55:57;95007.91;;;6.70;61.18
33151;BME280;19508;42.578;23.416;2022-12-18T13:58:23;95002.66;;;6.48;61.99
33151;BME280;19508;42.578;23.416;2022-12-18T14:00:48;95003.88;;;6.46;62.32
33151;BME280;19508;42.578;23.416;2022-12-18T14:03:28;95006.81;;;6.58;62.52
33151;BME280;19508;42.578;23.416;2022-12-18T14:06:06;95009.72;;;6.63;62.75
33151;BME280;19508;42.578;23.416;2022-12-18T14:08:37;95015.50;;;6.66;62.05
33151;BME280;19508;42.578;23.416;2022-12-18T14:11:04;95010.13;;;6.60;61.74
33151;BME280;19508;42.578;23.416;2022-12-18T14:13:32;95004.38;;;6.63;62.66
33151;BME280;19508;42.578;23.416;2022-12-18T14:16:01;95000.88;;;6.62;62.58
33151;BME280;19508;42.578;23.416;2022-12-18T14:18:45;95007.19;;;6.41;63.32
33151;BME280;19508;42.578;23.416;2022-12-18T14:21:24;95012.19;;;6.23;64.19
33151;BME280;19508;42.578;23.416;2022-12-18T14:24:15;95017.28;;;6.11;64.58
33151;BME280;19508;42.578;23.416;2022-12-18T14:26:42;95008.34;;;5.70;65.53
33151;BME280;19508;42.578;23.416;2022-12-18T14:29:28;95011.03;;;5.98;65.45
33151;BME280;19508;42.578;23.416;2022-12-18T14:32:14;95006.56;;;6.05;65.70
33151;BME280;19508;42.578;23.416;2022-12-18T14:34:43;95020.31;;;6.02;64.98
33151;BME280;19508;42.578;23.416;2022-12-18T14:37:11;95016.00;;;6.01;65.16
33151;BME280;19508;42.578;23.416;2022-12-18T14:39:37;95019.75;;;6.13;64.63
33151;BME280;19508;42.578;23.416;2022-12-18T14:42:02;95028.19;;;5.82;65.10
33151;BME280;19508;42.578;23.416;2022-12-18T14:44:28;95027.00;;;5.63;66.16
33151;BME280;19508;42.578;23.416;2022-12-18T14:46:55;95021.91;;;5.68;66.74
33151;BME280;19508;42.578;23.416;2022-12-18T14:52:01;95024.28;;;5.84;66.86
33151;BME280;19508;42.578;23.416;2022-12-18T14:54:28;95021.50;;;5.71;66.13
33151;BME280;19508;42.578;23.416;2022-12-18T14:59:43;95022.78;;;5.75;66.48
33151;BME280;19508;42.578;23.416;2022-12-18T15:02:18;95032.09;;;5.58;66.64
33151;BME280;19508;42.578;23.416;2022-12-18T15:04:44;95019.97;;;5.83;65.86
33151;BME280;19508;42.578;23.416;2022-12-18T15:07:19;95031.66;;;5.54;66.56